Terminal Aerodrome Forecast
Issued by NWS

Current Version | Previous Version | Graphics & Text | Print | Product List | Glossary Off
Versions: 1 2 3 4 5 6 7 8 9 10 11 12 13 14 15 16 17 18 19 20 21 22 23 24 25

994
FTUS41 KILN 051732
TAFLUK
TAF
KLUK 051732Z 0518/0618 34012KT P6SM VCSH OVC028
      TEMPO 0518/0522 6SM -SHRA BR OVC018
     FM060100 34005KT P6SM SCT040
     FM061400 34012KT P6SM SCT050=

USA.gov is the U.S. government's official web portal to all federal, state and local government web resources and services.